Terminal Aerodrome Forecast
Issued by NWS Charleston, WV

Home | Current Version | Previous Version | Text Only | Print | Product List | Glossary On
Versions: 1 2 3 4 5 6 7 8 9 10 11 12 13 14 15 16 17 18 19 20 21 22 23 24 25
000
FTUS41 KRLX 290200 AAA
TAFBKW
TAF AMD
KBKW 290225Z 2902/2924 34005KT 6SM -RADZ BR OVC002
      TEMPO 2902/2906 3SM -RADZ BR OVC004
     FM290600 33003KT 4SM -RADZ BR OVC003
     FM290800 00000KT 1 1/2SM -DZ BR OVC008
     FM291500 35003KT 3SM -DZ BR OVC010=

USA.gov is the U.S. government's official web portal to all federal, state and local government web resources and services.